METAR Data
IDs: Format: Raw Decoded Include TAF

Data at: 1639 UTC 21 Sep 2018

KCKF 211635Z AUTO 11004KT 10SM SCT040 30/19 A3016 RMK AO2 T03040187
KCKF 211615Z AUTO 17006KT 10SM SCT036 30/19 A3017 RMK AO2 T03030192
KCKF 211555Z AUTO 08005KT 10SM CLR 29/20 A3018 RMK AO2 T02930196
KCKF 211535Z AUTO 13007KT 10SM CLR 29/20 A3019 RMK AO2 T02890198
KCKF 211515Z AUTO 11007KT 10SM SCT023 29/21 A3019 RMK AO2 T02890205
KCKF 211455Z AUTO 14005KT 10SM SCT023 28/21 A3019 RMK AO2 T02810205
KCKF 211435Z AUTO 12006KT 10SM CLR 28/21 A3019 RMK AO2 T02760212
KCKF 211415Z AUTO 12007KT 10SM CLR 27/21 A3019 RMK AO2 T02730211
KCKF 211355Z AUTO 13005KT 10SM CLR 26/21 A3019 RMK AO2 T02630212
KCKF 211335Z AUTO 00000KT 10SM CLR 25/22 A3019 RMK AO2 T02520215
KCKF 211320Z AUTO 00000KT 10SM CLR 25/22 A3019 RMK AO2 T02460216
KCKF 211255Z AUTO 08003KT 10SM CLR 23/21 A3019 RMK AO2 T02300213
KCKF 211235Z AUTO 09003KT 10SM CLR 22/21 A3018 RMK AO2 T02200211
KCKF 211215Z AUTO 10003KT 10SM CLR 21/21 A3017 RMK AO2 T02140208
KCKF 211155Z AUTO 00000KT 10SM CLR 21/20 A3017 RMK AO2 T02080203 10235 20205
KCKF 211135Z AUTO 00000KT 10SM CLR 21/20 A3017 RMK AO2 T02070202
KCKF 211115Z AUTO 00000KT 10SM CLR 21/20 A3016 RMK AO2 T02060201
KCKF 211055Z AUTO 00000KT 10SM CLR 21/20 A3016 RMK AO2 T02080202
KCKF 211035Z AUTO 00000KT 10SM CLR 21/20 A3015 RMK AO2 T02050199
KCKF 211015Z AUTO 00000KT 10SM CLR 21/20 A3015 RMK AO2 T02100202
KCKF 210955Z AUTO 00000KT 10SM CLR 21/20 A3014 RMK AO2 T02100204
KCKF 210935Z AUTO 00000KT 10SM CLR 21/20 A3014 RMK AO2 T02060200
KCKF 210915Z AUTO 00000KT 10SM CLR 21/20 A3014 RMK AO2 T02100202
KCKF 210855Z AUTO 00000KT 10SM CLR 21/21 A3013 RMK AO2 T02120205
KCKF 210835Z AUTO 00000KT 10SM CLR 21/20 A3013 RMK AO2 T02110204
KCKF 210815Z AUTO 00000KT 10SM CLR 22/21 A3013 RMK AO2 T02230208
KCKF 210755Z AUTO 00000KT 10SM CLR 23/21 A3013 RMK AO2 T02270210
KCKF 210735Z AUTO 00000KT 10SM CLR 23/21 A3013 RMK AO2 T02270210
KCKF 210715Z AUTO 00000KT 10SM CLR 23/21 A3014 RMK AO2 T02300210
KCKF 210655Z AUTO 13003KT 10SM CLR 23/21 A3014 RMK AO2 T02310210
KCKF 210635Z AUTO 12003KT 10SM CLR 23/21 A3014 RMK AO2 LTG DSNT SW T02320210
KCKF 210615Z AUTO 12003KT 10SM CLR 23/21 A3014 RMK AO2 T02330207
KCKF 210555Z AUTO 11003KT 10SM CLR 23/21 A3014 RMK AO2 T02330206 10289 20233 403500207
KCKF 210535Z AUTO 12004KT 10SM CLR 24/21 A3014 RMK AO2 T02350206
KCKF 210515Z AUTO 12003KT 10SM CLR 24/21 A3014 RMK AO2 T02370205
KCKF 210455Z AUTO 12004KT 10SM CLR 24/21 A3014 RMK AO2 T02380205
KCKF 210435Z AUTO 12004KT 10SM CLR 24/20 A3014 RMK AO2 T02400202
KCKF 210415Z AUTO 13003KT 10SM CLR 24/20 A3014 RMK AO2 T02410200
KCKF 210355Z AUTO 13004KT 10SM CLR 24/20 A3014 RMK AO2 T02430200
KCKF 210335Z AUTO 13005KT 10SM CLR 24/20 A3014 RMK AO2 T02440196
KCKF 210315Z AUTO 13004KT 10SM CLR 25/19 A3013 RMK AO2 T02470193
KCKF 210255Z AUTO 12005KT 10SM CLR 25/19 A3013 RMK AO2 T02500190
KCKF 210235Z AUTO 12005KT 10SM CLR 26/19 A3013 RMK AO2 T02570186
KCKF 210215Z AUTO 13006KT 10SM CLR 26/18 A3012 RMK AO2 T02590183
KCKF 210155Z AUTO 11003KT 10SM CLR 24/19 A3011 RMK AO2 T02350188
KCKF 210135Z AUTO 00000KT 10SM CLR 24/19 A3009 RMK AO2 T02370190
KCKF 210115Z AUTO 00000KT 10SM CLR 25/19 A3008 RMK AO2 T02540186
KCKF 210055Z AUTO 10003KT 10SM CLR 26/19 A3008 RMK AO2 T02560189
KCKF 210035Z AUTO 08003KT 10SM CLR 27/19 A3007 RMK AO2 T02660186
KCKF 210015Z AUTO 08003KT 10SM CLR 27/18 A3006 RMK AO2 T02720180
KCKF 202355Z AUTO 09004KT 10SM CLR 29/17 A3006 RMK AO2 T02910169 10350 20291
KCKF 202335Z AUTO 09004KT 10SM CLR 30/17 A3006 RMK AO2 T03020167
KCKF 202315Z AUTO 10004KT 10SM CLR 31/17 A3006 RMK AO2 T03120167
KCKF 202255Z AUTO 12006KT 10SM CLR 32/16 A3005 RMK AO2 T03230162
KCKF 202235Z AUTO 12007KT 10SM CLR 33/16 A3005 RMK AO2 T03300157
KCKF 202215Z AUTO 11006KT 10SM CLR 33/16 A3005 RMK AO2 T03340157
KCKF 202155Z AUTO 10007KT 10SM CLR 34/16 A3005 RMK AO2 T03370156
KCKF 202135Z AUTO 11007KT 10SM CLR 34/16 A3004 RMK AO2 T03400155
KCKF 202115Z AUTO 12007KT 10SM CLR 35/16 A3004 RMK AO2 T03450155
KCKF 202055Z AUTO 09003KT 10SM SCT070 34/15 A3005 RMK AO2 T03370147
KCKF 202035Z AUTO 08007KT 10SM SCT070 35/16 A3005 RMK AO2 T03470158
KCKF 202015Z AUTO 11003KT 10SM CLR 34/15 A3005 RMK AO2 T03400151
KCKF 201955Z AUTO 00000KT 10SM SCT060 33/16 A3006 RMK AO2 T03300156
KCKF 201935Z AUTO 06007KT 10SM SCT060 34/16 A3006 RMK AO2 T03360163
KCKF 201915Z AUTO 05004KT 10SM BKN060 33/16 A3007 RMK AO2 T03320164
KCKF 201855Z AUTO 07005KT 10SM SCT060 34/17 A3007 RMK AO2 T03360170
KCKF 201835Z AUTO 05007KT 10SM SCT060 33/17 A3008 RMK AO2 T03330171
KCKF 201815Z AUTO 11003KT 10SM SCT060 34/17 A3008 RMK AO2 T03350174
KCKF 201755Z AUTO 06006KT 10SM SCT060 34/18 A3009 RMK AO2 T03360175 10336 20211
KCKF 201735Z AUTO 05004KT 10SM SCT050 33/18 A3010 RMK AO2 T03340177
KCKF 201715Z AUTO 10007KT 10SM SCT050 33/18 A3011 RMK AO2 T03330176
KCKF 201655Z AUTO 10003KT 10SM SCT050 33/18 A3011 RMK AO2 T03290179
KCKF 201635Z AUTO 10003KT 10SM SCT050 32/19 A3012 RMK AO2 T03240186
KCKF 201615Z AUTO 00000KT 10SM SCT050 33/18 A3012 RMK AO2 T03270184
KCKF 201555Z AUTO 15004KT 10SM SCT043 32/20 A3013 RMK AO2 T03240199
KCKF 201535Z AUTO 13004KT 10SM CLR 32/20 A3014 RMK AO2 T03160200
KCKF 201515Z AUTO 13007KT 10SM CLR 32/20 A3013 RMK AO2 T03150197
KCKF 201455Z AUTO 10004KT 10SM CLR 31/21 A3013 RMK AO2 T03080206
KCKF 201435Z AUTO 07005KT 10SM CLR 30/22 A3013 RMK AO2 T02990215
KCKF 201415Z AUTO 06004KT 10SM CLR 29/22 A3012 RMK AO2 T02880218
KCKF 201355Z AUTO 07003KT 10SM CLR 28/22 A3012 RMK AO2 T02770221
KCKF 201335Z AUTO 00000KT 10SM CLR 26/22 A3011 RMK AO2 T02620221
KCKF 201315Z AUTO 00000KT 10SM CLR 25/22 A3011 RMK AO2 T02500220
KCKF 201255Z AUTO 00000KT 10SM CLR 24/21 A3011 RMK AO2 T02390214
KCKF 201235Z AUTO 00000KT 10SM CLR 23/21 A3010 RMK AO2 T02260210
KCKF 201215Z AUTO 00000KT 10SM CLR 22/21 A3009 RMK AO2 T02150205
KCKF 201155Z AUTO 00000KT 10SM CLR 21/20 A3008 RMK AO2 T02100202 10231 20207
KCKF 201135Z AUTO 00000KT 10SM CLR 21/20 A3007 RMK AO2 T02070198
KCKF 201115Z AUTO 00000KT 10SM CLR 21/20 A3006 RMK AO2 T02080198
KCKF 201055Z AUTO 00000KT 10SM CLR 21/20 A3006 RMK AO2 T02100200
KCKF 201035Z AUTO 00000KT 10SM CLR 21/20 A3005 RMK AO2 T02100200
KCKF 201015Z AUTO 00000KT 10SM CLR 21/20 A3004 RMK AO2 T02140201
KCKF 200955Z AUTO 00000KT 10SM CLR 21/20 A3003 RMK AO2 T02110202
KCKF 200935Z AUTO 00000KT 10SM CLR 21/20 A3003 RMK AO2 T02120202
KCKF 200915Z AUTO 00000KT 10SM CLR 22/20 A3002 RMK AO2 T02150203
KCKF 200855Z AUTO 06004KT 10SM CLR 21/20 A3002 RMK AO2 T02130201
KCKF 200835Z AUTO 00000KT 10SM CLR 22/20 A3002 RMK AO2 T02150203
KCKF 200815Z AUTO 00000KT 10SM CLR 22/20 A3002 RMK AO2 T02160204
KCKF 200755Z AUTO 04003KT 10SM CLR 22/20 A3002 RMK AO2 T02200204
KCKF 200735Z AUTO 05003KT 10SM CLR 22/20 A3002 RMK AO2 T02160202
KCKF 200715Z AUTO 00000KT 10SM CLR 22/20 A3003 RMK AO2 T02210203
KCKF 200655Z AUTO 05003KT 10SM CLR 22/20 A3003 RMK AO2 T02200202
KCKF 200635Z AUTO 00000KT 10SM CLR 23/20 A3002 RMK AO2 T02260203
KCKF 200615Z AUTO 00000KT 10SM CLR 23/20 A3002 RMK AO2 T02280202
KCKF 200555Z AUTO 00000KT 10SM CLR 23/20 A3002 RMK AO2 T02260203 10281 20225 403540216
KCKF 200535Z AUTO 08004KT 10SM CLR 23/20 A3002 RMK AO2 T02270204
KCKF 200515Z AUTO 00000KT 10SM CLR 23/20 A3002 RMK AO2 T02280203
KCKF 200455Z AUTO 00000KT 10SM CLR 23/21 A3003 RMK AO2 T02290206